createdAt,value
2017-11-07T00:00:07.220Z,935.46
2017-11-07T00:00:35.772Z,935.45
2017-11-07T00:01:04.065Z,935.5
2017-11-07T00:01:32.481Z,935.51
2017-11-07T00:02:01.163Z,935.51
2017-11-07T00:02:29.867Z,935.55
2017-11-07T00:02:58.220Z,935.6
2017-11-07T00:03:26.636Z,935.62
2017-11-07T00:03:55.194Z,935.59
2017-11-07T00:04:23.544Z,935.57
2017-11-07T00:04:52.114Z,935.59
2017-11-07T00:05:20.547Z,935.54
2017-11-07T00:05:48.992Z,935.56
2017-11-07T00:06:17.494Z,935.51
2017-11-07T00:06:45.979Z,935.56
2017-11-07T00:07:14.341Z,935.54
2017-11-07T00:07:42.490Z,935.54
2017-11-07T00:08:10.656Z,935.54
2017-11-07T00:08:39.312Z,935.57
2017-11-07T00:09:08.452Z,935.55
2017-11-07T00:09:36.733Z,935.6
2017-11-07T00:10:05.207Z,935.6
2017-11-07T00:10:33.598Z,935.6
2017-11-07T00:11:01.894Z,935.6
2017-11-07T00:11:30.096Z,935.57
2017-11-07T00:11:58.017Z,935.63
2017-11-07T00:12:26.128Z,935.61
2017-11-07T00:12:54.383Z,935.67
2017-11-07T00:13:22.794Z,935.61
2017-11-07T00:13:51.126Z,935.6
2017-11-07T00:14:19.403Z,935.6
2017-11-07T00:14:47.698Z,935.59
2017-11-07T00:15:16.316Z,935.57
2017-11-07T00:15:44.917Z,935.62
2017-11-07T00:16:13.453Z,935.57
2017-11-07T00:16:42.021Z,935.58
2017-11-07T00:17:10.435Z,935.56
2017-11-07T00:17:38.886Z,935.58
2017-11-07T00:18:07.442Z,935.56
2017-11-07T00:18:35.779Z,935.58
2017-11-07T00:19:04.300Z,935.6
2017-11-07T00:19:32.940Z,935.6
2017-11-07T00:20:01.324Z,935.52
2017-11-07T00:20:29.836Z,935.53
2017-11-07T00:20:58.257Z,935.52
2017-11-07T00:21:26.739Z,935.53
2017-11-07T00:21:55.087Z,935.56
2017-11-07T00:22:23.778Z,935.54
2017-11-07T00:22:52.311Z,935.57
2017-11-07T00:23:20.904Z,935.54
2017-11-07T00:23:49.441Z,935.57
2017-11-07T00:24:18.100Z,935.57
2017-11-07T00:24:46.712Z,935.54
2017-11-07T00:25:15.253Z,935.51
2017-11-07T00:25:43.745Z,935.58
2017-11-07T00:26:11.930Z,935.57
2017-11-07T00:26:40.701Z,935.57
2017-11-07T00:27:09.253Z,935.53
2017-11-07T00:27:37.741Z,935.58
2017-11-07T00:28:06.186Z,935.6
2017-11-07T00:28:34.656Z,935.57
2017-11-07T00:29:03.097Z,935.55
2017-11-07T00:29:31.276Z,935.64
2017-11-07T00:29:59.478Z,935.6
2017-11-07T00:30:27.964Z,935.62
2017-11-07T00:30:56.169Z,935.61
2017-11-07T00:31:24.425Z,935.58
2017-11-07T00:31:52.647Z,935.61
2017-11-07T00:32:21.052Z,935.63
2017-11-07T00:32:49.590Z,935.63
2017-11-07T00:33:17.793Z,935.62
2017-11-07T00:33:45.898Z,935.61
2017-11-07T00:34:13.928Z,935.61
2017-11-07T00:34:42.136Z,935.62
2017-11-07T00:35:10.318Z,935.63
2017-11-07T00:35:38.524Z,935.65
2017-11-07T00:36:06.768Z,935.63
2017-11-07T00:36:34.938Z,935.59
2017-11-07T00:37:03.288Z,935.64
2017-11-07T00:37:31.464Z,935.64
2017-11-07T00:37:59.820Z,935.66
2017-11-07T00:38:28.124Z,935.6
2017-11-07T00:38:56.520Z,935.67
2017-11-07T00:39:24.961Z,935.66
2017-11-07T00:39:53.298Z,935.68
2017-11-07T00:40:21.696Z,935.7
2017-11-07T00:40:50.166Z,935.7
2017-11-07T00:41:18.258Z,935.69
2017-11-07T00:41:46.533Z,935.67
2017-11-07T00:42:14.890Z,935.68
2017-11-07T00:42:42.974Z,935.67
2017-11-07T00:43:11.285Z,935.64
2017-11-07T00:43:39.443Z,935.69
2017-11-07T00:44:07.918Z,935.64
2017-11-07T00:44:36.391Z,935.66
2017-11-07T00:45:04.684Z,935.63
2017-11-07T00:45:33.070Z,935.62
2017-11-07T00:46:01.306Z,935.68
2017-11-07T00:46:29.346Z,935.68
2017-11-07T00:46:57.338Z,935.67
2017-11-07T00:47:25.576Z,935.63
2017-11-07T00:47:53.627Z,935.67
2017-11-07T00:48:21.761Z,935.7
2017-11-07T00:48:49.688Z,935.68
2017-11-07T00:49:17.836Z,935.66
2017-11-07T00:49:45.791Z,935.67
2017-11-07T00:50:13.879Z,935.65
2017-11-07T00:50:41.858Z,935.7
2017-11-07T00:51:09.917Z,935.69
2017-11-07T00:51:37.964Z,935.71
2017-11-07T00:52:06.005Z,935.74
2017-11-07T00:52:33.954Z,935.69
2017-11-07T00:53:02.125Z,935.71
2017-11-07T00:53:30.196Z,935.72
2017-11-07T00:53:58.232Z,935.72
2017-11-07T00:54:26.351Z,935.74
2017-11-07T00:54:54.469Z,935.75
2017-11-07T00:55:22.537Z,935.73
2017-11-07T00:55:50.599Z,935.74
2017-11-07T00:56:18.658Z,935.7
2017-11-07T00:56:46.735Z,935.69
2017-11-07T00:57:14.879Z,935.68
2017-11-07T00:57:43.035Z,935.71
2017-11-07T00:58:11.120Z,935.71
2017-11-07T00:58:39.318Z,935.67
2017-11-07T00:59:07.364Z,935.6
2017-11-07T00:59:35.332Z,935.68
2017-11-07T01:00:03.473Z,935.66
2017-11-07T01:00:31.307Z,935.68
2017-11-07T01:00:59.383Z,935.61
2017-11-07T01:01:27.450Z,935.64
2017-11-07T01:01:55.539Z,935.65
2017-11-07T01:02:23.579Z,935.61
2017-11-07T01:02:51.653Z,935.62
2017-11-07T01:03:19.710Z,935.64
2017-11-07T01:03:47.756Z,935.61
2017-11-07T01:04:15.924Z,935.61
2017-11-07T01:04:43.979Z,935.58
2017-11-07T01:05:12.104Z,935.63
2017-11-07T01:05:40.060Z,935.61
2017-11-07T01:07:06.465Z,935.63
2017-11-07T01:07:34.570Z,935.59
2017-11-07T01:08:02.597Z,935.63
2017-11-07T01:08:30.764Z,935.61
2017-11-07T01:08:58.803Z,935.66
2017-11-07T01:09:26.948Z,935.61
2017-11-07T01:09:55.089Z,935.63
2017-11-07T01:10:23.135Z,935.63
2017-11-07T01:10:51.251Z,935.62
2017-11-07T01:11:19.206Z,935.62
2017-11-07T01:11:47.322Z,935.65
2017-11-07T01:12:15.256Z,935.66
2017-11-07T01:12:43.546Z,935.66
2017-11-07T01:13:11.633Z,935.66
2017-11-07T01:13:39.680Z,935.71
2017-11-07T01:14:07.817Z,935.63
2017-11-07T01:14:35.853Z,935.73
2017-11-07T01:15:03.903Z,935.75
2017-11-07T01:15:32.040Z,935.7
2017-11-07T01:16:00.136Z,935.74
2017-11-07T01:16:28.289Z,935.72
2017-11-07T01:16:56.348Z,935.72
2017-11-07T01:17:24.491Z,935.73
2017-11-07T01:17:52.601Z,935.76
2017-11-07T01:18:20.430Z,935.8
2017-11-07T01:18:48.388Z,935.81
2017-11-07T01:19:16.518Z,935.77
2017-11-07T01:19:44.585Z,935.78
2017-11-07T01:20:12.599Z,935.77
2017-11-07T01:20:40.657Z,935.74
2017-11-07T01:21:08.681Z,935.78
2017-11-07T01:21:36.718Z,935.75
2017-11-07T01:22:04.885Z,935.74
2017-11-07T01:22:32.883Z,935.74
2017-11-07T01:23:01.197Z,935.68
2017-11-07T01:23:29.460Z,935.71
2017-11-07T01:23:57.694Z,935.73
2017-11-07T01:24:25.539Z,935.76
2017-11-07T01:24:53.548Z,935.73
2017-11-07T01:25:21.497Z,935.73
2017-11-07T01:25:49.633Z,935.73
2017-11-07T01:26:17.779Z,935.78
2017-11-07T01:26:45.816Z,935.78
2017-11-07T01:27:13.974Z,935.8
2017-11-07T01:27:41.979Z,935.76
2017-11-07T01:28:10.119Z,935.79
2017-11-07T01:28:38.183Z,935.84
2017-11-07T01:29:06.304Z,935.84
2017-11-07T01:29:34.329Z,935.78
2017-11-07T01:30:02.264Z,935.81
2017-11-07T01:30:30.460Z,935.81
2017-11-07T01:30:58.355Z,935.82
2017-11-07T01:31:26.275Z,935.82
2017-11-07T01:31:54.312Z,935.84
2017-11-07T01:32:22.425Z,935.85
2017-11-07T01:32:50.355Z,935.84
2017-11-07T01:33:18.371Z,935.84
2017-11-07T01:33:46.386Z,935.85
2017-11-07T01:34:14.517Z,935.8
2017-11-07T01:34:42.383Z,935.79
2017-11-07T01:35:10.427Z,935.78
2017-11-07T01:35:38.555Z,935.75
2017-11-07T01:36:06.580Z,935.68
2017-11-07T01:36:34.517Z,935.73
2017-11-07T01:37:02.477Z,935.71
2017-11-07T01:37:30.487Z,935.73
2017-11-07T01:37:58.635Z,935.71
2017-11-07T01:38:26.777Z,935.74
2017-11-07T01:38:54.806Z,935.73
2017-11-07T01:39:22.848Z,935.7
2017-11-07T01:39:50.875Z,935.75
2017-11-07T01:40:18.686Z,935.74
2017-11-07T01:40:46.746Z,935.81
2017-11-07T01:41:14.767Z,935.75
2017-11-07T01:41:42.983Z,935.76
2017-11-07T01:42:11.095Z,935.76
2017-11-07T01:42:39.015Z,935.8
2017-11-07T01:43:07.091Z,935.8
2017-11-07T01:43:34.928Z,935.79
2017-11-07T01:44:02.910Z,935.79
2017-11-07T01:44:30.966Z,935.75
2017-11-07T01:44:58.895Z,935.77
2017-11-07T01:45:26.748Z,935.77
2017-11-07T01:45:54.774Z,935.79
2017-11-07T01:46:22.924Z,935.76
2017-11-07T01:46:50.958Z,935.77
2017-11-07T01:47:18.897Z,935.76
2017-11-07T01:47:46.984Z,935.75
2017-11-07T01:48:14.905Z,935.74
2017-11-07T01:48:42.642Z,935.75
2017-11-07T01:49:10.784Z,935.72
2017-11-07T01:49:38.800Z,935.71
2017-11-07T01:50:06.742Z,935.7
2017-11-07T01:50:34.860Z,935.69
2017-11-07T01:51:02.869Z,935.71
2017-11-07T01:51:31.003Z,935.67
2017-11-07T01:51:59.038Z,935.66
2017-11-07T01:52:27.168Z,935.7
2017-11-07T01:52:55.367Z,935.67
2017-11-07T01:53:23.506Z,935.68
2017-11-07T01:53:51.583Z,935.66
2017-11-07T01:54:19.755Z,935.61
2017-11-07T01:54:47.684Z,935.65
2017-11-07T01:55:15.591Z,935.64
2017-11-07T01:55:43.603Z,935.67
2017-11-07T01:56:11.671Z,935.67
2017-11-07T01:56:39.766Z,935.67
2017-11-07T01:57:07.906Z,935.67
2017-11-07T01:57:35.926Z,935.64
2017-11-07T01:58:04.231Z,935.67
2017-11-07T01:58:32.263Z,935.6
2017-11-07T01:59:00.298Z,935.65
2017-11-07T01:59:28.271Z,935.63
2017-11-07T01:59:56.306Z,935.66
2017-11-07T02:00:24.479Z,935.62
2017-11-07T02:00:52.634Z,935.6
2017-11-07T02:01:20.459Z,935.67
2017-11-07T02:01:48.620Z,935.65
2017-11-07T02:02:16.779Z,935.65
2017-11-07T02:02:44.908Z,935.66
2017-11-07T02:03:13.123Z,935.66
2017-11-07T02:03:41.265Z,935.65
2017-11-07T02:04:09.254Z,935.63
2017-11-07T02:04:37.429Z,935.67
2017-11-07T02:05:05.475Z,935.64
2017-11-07T02:05:33.639Z,935.67
2017-11-07T02:06:01.706Z,935.67
2017-11-07T02:06:29.904Z,935.7
2017-11-07T02:06:58.374Z,935.69
2017-11-07T02:07:26.313Z,935.67
2017-11-07T02:07:54.415Z,935.65
2017-11-07T02:08:22.453Z,935.64
2017-11-07T02:08:50.437Z,935.65
2017-11-07T02:09:18.377Z,935.66
2017-11-07T02:09:46.482Z,935.6
2017-11-07T02:10:14.586Z,935.64
2017-11-07T02:10:42.591Z,935.65
2017-11-07T02:11:10.487Z,935.66
2017-11-07T02:11:38.425Z,935.68
2017-11-07T02:12:06.296Z,935.66
2017-11-07T02:12:34.346Z,935.67
2017-11-07T02:13:02.402Z,935.67
2017-11-07T02:13:30.228Z,935.72
2017-11-07T02:13:58.358Z,935.72
2017-11-07T02:14:26.319Z,935.68
2017-11-07T02:14:54.216Z,935.73
2017-11-07T02:15:22.286Z,935.68
2017-11-07T02:15:50.417Z,935.66
2017-11-07T02:16:18.473Z,935.63
2017-11-07T02:16:46.473Z,935.65
2017-11-07T02:17:15.004Z,935.64
2017-11-07T02:17:43.135Z,935.65
2017-11-07T02:18:11.272Z,935.63
2017-11-07T02:18:39.450Z,935.62
2017-11-07T02:19:07.470Z,935.59
2017-11-07T02:19:35.490Z,935.63
2017-11-07T02:20:03.545Z,935.63
2017-11-07T02:20:31.701Z,935.64
2017-11-07T02:20:59.727Z,935.64
2017-11-07T02:21:27.623Z,935.62
2017-11-07T02:21:55.878Z,935.64
2017-11-07T02:22:23.926Z,935.64
2017-11-07T02:22:51.969Z,935.63
2017-11-07T02:23:19.998Z,935.65
2017-11-07T02:23:48.081Z,935.65
2017-11-07T02:24:16.000Z,935.64
2017-11-07T02:24:44.035Z,935.67
2017-11-07T02:25:12.015Z,935.67
2017-11-07T02:25:39.961Z,935.65
2017-11-07T02:26:07.800Z,935.63
2017-11-07T02:26:35.862Z,935.63
2017-11-07T02:27:03.825Z,935.66
2017-11-07T02:27:31.847Z,935.61
2017-11-07T02:27:59.784Z,935.6
2017-11-07T02:28:28.032Z,935.64
2017-11-07T02:28:55.884Z,935.63
2017-11-07T02:29:24.039Z,935.65
2017-11-07T02:29:52.074Z,935.62
2017-11-07T02:30:20.111Z,935.62
2017-11-07T02:30:47.971Z,935.61
2017-11-07T02:31:15.970Z,935.6
2017-11-07T02:31:44.097Z,935.63
2017-11-07T02:32:12.249Z,935.61
2017-11-07T02:32:40.078Z,935.6
2017-11-07T02:33:08.020Z,935.6
2017-11-07T02:33:36.068Z,935.55
2017-11-07T02:34:04.105Z,935.56
2017-11-07T02:34:32.062Z,935.59
2017-11-07T02:35:00.167Z,935.6
2017-11-07T02:35:28.202Z,935.56
2017-11-07T02:35:56.120Z,935.58
2017-11-07T02:36:24.272Z,935.52
2017-11-07T02:36:52.193Z,935.51
2017-11-07T02:37:20.122Z,935.5
2017-11-07T02:37:48.166Z,935.51
2017-11-07T02:38:16.173Z,935.5
2017-11-07T02:38:44.384Z,935.54
2017-11-07T02:39:12.368Z,935.5
2017-11-07T02:39:40.473Z,935.5
2017-11-07T02:40:08.488Z,935.48
2017-11-07T02:40:36.526Z,935.48
2017-11-07T02:41:04.454Z,935.49
2017-11-07T02:41:32.488Z,935.47
2017-11-07T02:42:00.624Z,935.46
2017-11-07T02:42:28.790Z,935.45
2017-11-07T02:42:56.796Z,935.44
2017-11-07T02:43:24.845Z,935.44
2017-11-07T02:43:52.989Z,935.45
2017-11-07T02:44:21.119Z,935.43
2017-11-07T02:44:49.178Z,935.41
2017-11-07T02:45:17.201Z,935.39
2017-11-07T02:45:45.226Z,935.38
2017-11-07T02:46:13.406Z,935.37
2017-11-07T02:46:41.491Z,935.32
2017-11-07T02:47:09.507Z,935.33
2017-11-07T02:47:37.477Z,935.31
2017-11-07T02:48:05.526Z,935.28
2017-11-07T02:48:33.687Z,935.28
2017-11-07T02:49:01.621Z,935.26
2017-11-07T02:49:29.669Z,935.27
2017-11-07T02:49:57.733Z,935.23
2017-11-07T02:50:25.654Z,935.26
2017-11-07T02:50:53.727Z,935.22
2017-11-07T02:51:21.821Z,935.22
2017-11-07T02:51:49.951Z,935.23
2017-11-07T02:52:17.936Z,935.21
2017-11-07T02:52:46.123Z,935.18
2017-11-07T02:53:14.137Z,935.18
2017-11-07T02:53:42.292Z,935.15
2017-11-07T02:54:10.436Z,935.12
2017-11-07T02:54:38.453Z,935.13
2017-11-07T02:55:06.409Z,935.09
2017-11-07T02:55:34.433Z,935.08
2017-11-07T02:56:02.562Z,935.09
2017-11-07T02:56:30.709Z,935.07
2017-11-07T02:56:58.760Z,935.07
2017-11-07T02:57:26.813Z,935.09
2017-11-07T02:57:54.732Z,935.09
2017-11-07T02:58:22.671Z,935.07
2017-11-07T02:58:50.495Z,935.1
2017-11-07T02:59:18.468Z,935.1
2017-11-07T02:59:46.729Z,935.09
2017-11-07T03:00:14.680Z,935.06
2017-11-07T03:00:42.655Z,935.06
2017-11-07T03:01:10.817Z,935.05
2017-11-07T03:01:38.980Z,935.03
2017-11-07T03:02:07.046Z,935.08
2017-11-07T03:02:35.214Z,935.02
2017-11-07T03:03:03.354Z,935.03
2017-11-07T03:03:31.496Z,935.05
2017-11-07T03:04:00.037Z,935.03
2017-11-07T03:04:27.950Z,935.03
2017-11-07T03:04:55.982Z,934.99
2017-11-07T03:05:23.864Z,935.01
2017-11-07T03:05:51.801Z,935.01
2017-11-07T03:06:19.833Z,935.02
2017-11-07T03:06:47.895Z,934.97
2017-11-07T03:07:15.972Z,934.95
2017-11-07T03:07:43.986Z,934.97
2017-11-07T03:08:11.847Z,934.95
2017-11-07T03:08:39.988Z,934.93
2017-11-07T03:09:08.016Z,934.94
2017-11-07T03:09:36.186Z,934.9
2017-11-07T03:10:04.125Z,934.9
2017-11-07T03:10:32.149Z,934.89
2017-11-07T03:11:00.185Z,934.92
2017-11-07T03:11:28.115Z,934.94
2017-11-07T03:11:56.083Z,934.89
2017-11-07T03:12:24.031Z,934.9
2017-11-07T03:12:52.067Z,934.88
2017-11-07T03:13:20.001Z,934.89
2017-11-07T03:13:47.848Z,934.92
2017-11-07T03:14:15.906Z,934.9
2017-11-07T03:14:43.866Z,934.85
2017-11-07T03:15:11.910Z,934.88
2017-11-07T03:15:39.726Z,934.9
2017-11-07T03:16:07.784Z,934.88
2017-11-07T03:16:35.719Z,934.89
2017-11-07T03:17:03.851Z,934.89
2017-11-07T03:17:31.699Z,934.87
2017-11-07T03:17:59.631Z,934.87
2017-11-07T03:18:27.578Z,934.86
2017-11-07T03:18:55.731Z,934.85
2017-11-07T03:19:23.670Z,934.87
2017-11-07T03:19:51.481Z,934.84
2017-11-07T03:20:19.529Z,934.83
2017-11-07T03:20:47.382Z,934.85
2017-11-07T03:21:15.413Z,934.83
2017-11-07T03:21:43.471Z,934.83
2017-11-07T03:22:11.479Z,934.84
2017-11-07T03:22:39.423Z,934.83
2017-11-07T03:23:07.458Z,934.83
2017-11-07T03:23:35.482Z,934.84
2017-11-07T03:24:03.561Z,934.77
2017-11-07T03:24:31.513Z,934.74
2017-11-07T03:24:59.683Z,934.8
2017-11-07T03:25:27.629Z,934.79
2017-11-07T03:25:55.650Z,934.78
2017-11-07T03:26:23.729Z,934.82
2017-11-07T03:26:51.906Z,934.78
2017-11-07T03:27:19.950Z,934.77
2017-11-07T03:27:48.440Z,934.76
2017-11-07T03:28:16.565Z,934.77
2017-11-07T03:28:44.702Z,934.79
2017-11-07T03:29:12.746Z,934.81
2017-11-07T03:29:40.806Z,934.76
2017-11-07T03:30:08.760Z,934.76
2017-11-07T03:30:36.684Z,934.83
2017-11-07T03:31:04.716Z,934.76
2017-11-07T03:31:32.850Z,934.76
2017-11-07T03:32:00.795Z,934.76
2017-11-07T03:32:28.943Z,934.72
2017-11-07T03:32:56.977Z,934.72
2017-11-07T03:33:24.974Z,934.66
2017-11-07T03:33:52.873Z,934.65
2017-11-07T03:34:20.754Z,934.68
2017-11-07T03:34:48.826Z,934.67
2017-11-07T03:35:16.775Z,934.58
2017-11-07T03:35:44.811Z,934.57
2017-11-07T03:36:12.829Z,934.55
2017-11-07T03:36:40.951Z,934.62
2017-11-07T03:37:08.999Z,934.61
2017-11-07T03:37:36.899Z,934.6
2017-11-07T03:38:04.850Z,934.56
2017-11-07T03:38:32.912Z,934.52
2017-11-07T03:39:00.933Z,934.49
2017-11-07T03:39:28.974Z,934.46
2017-11-07T03:39:56.982Z,934.49
2017-11-07T03:40:25.078Z,934.47
2017-11-07T03:40:53.206Z,934.44
2017-11-07T03:41:21.128Z,934.46
2017-11-07T03:41:49.153Z,934.47
2017-11-07T03:42:17.404Z,934.48
2017-11-07T03:42:45.321Z,934.44
2017-11-07T03:43:13.456Z,934.41
2017-11-07T03:43:41.285Z,934.39
2017-11-07T03:44:09.404Z,934.38
2017-11-07T03:44:37.428Z,934.37
2017-11-07T03:45:05.540Z,934.37
2017-11-07T03:45:33.484Z,934.35
2017-11-07T03:46:01.444Z,934.36
2017-11-07T03:46:29.375Z,934.37
2017-11-07T03:46:57.482Z,934.4
2017-11-07T03:47:25.617Z,934.37
2017-11-07T03:47:53.557Z,934.38
2017-11-07T03:48:21.530Z,934.48
2017-11-07T03:48:49.549Z,934.47
2017-11-07T03:49:17.469Z,934.44
2017-11-07T03:49:45.510Z,934.45
2017-11-07T03:50:13.431Z,934.47
2017-11-07T03:50:41.397Z,934.48
2017-11-07T03:51:09.502Z,934.53
2017-11-07T03:51:37.660Z,934.51
2017-11-07T03:52:05.577Z,934.51
2017-11-07T03:52:33.696Z,934.54
2017-11-07T03:53:01.725Z,934.5
2017-11-07T03:53:29.743Z,934.53
2017-11-07T03:53:57.759Z,934.52
2017-11-07T03:54:25.729Z,934.51
2017-11-07T03:54:53.791Z,934.49
2017-11-07T03:55:21.831Z,934.48
2017-11-07T03:55:49.871Z,934.44
2017-11-07T03:56:17.917Z,934.41
2017-11-07T03:56:46.063Z,934.42
2017-11-07T03:57:13.984Z,934.43
2017-11-07T03:57:41.844Z,934.38
2017-11-07T03:58:09.995Z,934.36
2017-11-07T03:58:37.807Z,934.35
2017-11-07T03:59:06.074Z,934.34
2017-11-07T03:59:34.125Z,934.33
2017-11-07T04:00:02.304Z,934.28
2017-11-07T04:00:30.301Z,934.24
2017-11-07T04:00:58.255Z,934.27
2017-11-07T04:01:26.212Z,934.23
2017-11-07T04:01:54.275Z,934.25
2017-11-07T04:02:22.345Z,934.16
2017-11-07T04:02:50.361Z,934.19
2017-11-07T04:03:18.421Z,934.17
2017-11-07T04:03:46.582Z,934.13
2017-11-07T04:04:14.732Z,934.16
2017-11-07T04:04:42.687Z,934.16
2017-11-07T04:05:10.663Z,934.14
2017-11-07T04:05:38.802Z,934.13
2017-11-07T04:06:06.923Z,934.15
2017-11-07T04:06:34.945Z,934.15
2017-11-07T04:07:03.096Z,934.17
2017-11-07T04:07:31.169Z,934.18
2017-11-07T04:07:59.122Z,934.15
2017-11-07T04:08:27.127Z,934.18
2017-11-07T04:08:55.258Z,934.15
2017-11-07T04:09:23.368Z,934.14
2017-11-07T04:09:51.307Z,934.16
2017-11-07T04:10:19.346Z,934.17
2017-11-07T04:10:47.284Z,934.16
2017-11-07T04:11:15.210Z,934.15
2017-11-07T04:11:43.292Z,934.11
2017-11-07T04:12:11.362Z,934.13
2017-11-07T04:12:39.475Z,934.18
2017-11-07T04:13:07.508Z,934.13
2017-11-07T04:13:35.535Z,934.16
2017-11-07T04:14:03.684Z,934.14
2017-11-07T04:14:31.735Z,934.15
2017-11-07T04:14:59.792Z,934.14
2017-11-07T04:15:27.896Z,934.13
2017-11-07T04:15:55.861Z,934.14
2017-11-07T04:16:23.931Z,934.14
2017-11-07T04:16:52.065Z,934.12
2017-11-07T04:17:19.991Z,934.11
2017-11-07T04:17:48.010Z,934.1
2017-11-07T04:18:15.861Z,934.11
2017-11-07T04:18:44.760Z,934.08
2017-11-07T04:19:12.910Z,934.1
2017-11-07T04:19:40.917Z,934.11
2017-11-07T04:20:08.863Z,934.1
2017-11-07T04:20:36.802Z,934.09
2017-11-07T04:21:04.945Z,934.08
2017-11-07T04:21:33.374Z,934.11
2017-11-07T04:22:01.505Z,934.11
2017-11-07T04:22:29.800Z,934.12
2017-11-07T04:22:58.224Z,934.14
2017-11-07T04:23:26.658Z,934.09
2017-11-07T04:23:54.744Z,934.13
2017-11-07T04:24:22.907Z,934.1
2017-11-07T04:24:51.032Z,934.21
2017-11-07T04:25:19.052Z,934.11
2017-11-07T04:25:47.011Z,934.1
2017-11-07T04:26:15.158Z,934.08
2017-11-07T04:26:43.243Z,934.11
2017-11-07T04:27:11.374Z,934.14
2017-11-07T04:27:39.304Z,934.08
2017-11-07T04:28:07.343Z,934.13
2017-11-07T04:28:35.388Z,934.13
2017-11-07T04:29:03.472Z,934.12
2017-11-07T04:29:31.732Z,934.08
2017-11-07T04:29:59.678Z,934.08
2017-11-07T04:30:27.613Z,934.12
2017-11-07T04:30:55.779Z,934.14
2017-11-07T04:31:23.708Z,934.11
2017-11-07T04:31:51.771Z,934.11
2017-11-07T04:32:19.945Z,934.09
2017-11-07T04:32:48.085Z,934.08
2017-11-07T04:33:16.205Z,934.07
2017-11-07T04:33:44.368Z,934.05
2017-11-07T04:34:12.320Z,934.1
2017-11-07T04:34:40.529Z,934.1
2017-11-07T04:35:08.577Z,934.07
2017-11-07T04:35:36.698Z,934.03
2017-11-07T04:36:04.718Z,934
2017-11-07T04:36:32.768Z,933.99
2017-11-07T04:37:00.884Z,933.98
2017-11-07T04:37:29.017Z,933.99
2017-11-07T04:37:57.169Z,933.96
2017-11-07T04:38:25.213Z,933.96
2017-11-07T04:38:53.140Z,933.94
2017-11-07T04:39:21.063Z,933.94
2017-11-07T04:39:49.215Z,933.94
2017-11-07T04:40:17.205Z,933.95
2017-11-07T04:40:45.024Z,933.93
2017-11-07T04:41:13.162Z,933.95
2017-11-07T04:41:41.203Z,933.9
2017-11-07T04:42:09.243Z,933.87
2017-11-07T04:42:37.085Z,933.83
2017-11-07T04:43:05.217Z,933.85
2017-11-07T04:43:33.144Z,933.81
2017-11-07T04:44:01.030Z,933.82
2017-11-07T04:44:29.158Z,933.79
2017-11-07T04:44:57.162Z,933.81
2017-11-07T04:45:25.182Z,933.83
2017-11-07T04:45:53.143Z,933.78
2017-11-07T04:46:21.171Z,933.83
2017-11-07T04:46:49.140Z,933.83
2017-11-07T04:47:17.042Z,933.85
2017-11-07T04:47:45.064Z,933.88
2017-11-07T04:48:13.111Z,933.85
2017-11-07T04:48:41.024Z,933.89
2017-11-07T04:49:08.943Z,933.86
2017-11-07T04:49:37.071Z,933.89
2017-11-07T04:50:05.121Z,933.92
2017-11-07T04:50:33.130Z,933.94
2017-11-07T04:51:00.981Z,933.93
2017-11-07T04:51:29.060Z,933.91
2017-11-07T04:51:57.195Z,933.94
2017-11-07T04:52:25.131Z,933.93
2017-11-07T04:52:53.085Z,933.91
2017-11-07T04:53:21.288Z,933.87
2017-11-07T04:53:49.295Z,933.92
2017-11-07T04:54:17.191Z,933.89
2017-11-07T04:54:45.201Z,933.88
2017-11-07T04:55:13.132Z,933.93
2017-11-07T04:55:41.197Z,933.89
2017-11-07T04:56:09.323Z,933.89
2017-11-07T04:56:37.494Z,933.88
2017-11-07T04:57:05.648Z,933.88
2017-11-07T04:57:33.745Z,933.88
2017-11-07T04:58:01.787Z,933.88
2017-11-07T04:58:29.709Z,933.89
2017-11-07T04:58:57.637Z,933.86
2017-11-07T04:59:25.795Z,933.95
2017-11-07T04:59:53.941Z,933.89
2017-11-07T05:00:21.793Z,933.94
2017-11-07T05:00:49.943Z,933.93
2017-11-07T05:01:17.954Z,933.91
2017-11-07T05:01:46.061Z,933.84
2017-11-07T05:02:14.186Z,933.88
2017-11-07T05:02:42.120Z,933.91
2017-11-07T05:03:10.065Z,933.92
2017-11-07T05:03:38.191Z,933.87
2017-11-07T05:04:06.380Z,933.86
2017-11-07T05:04:34.402Z,933.86
2017-11-07T05:05:02.444Z,933.81
2017-11-07T05:05:30.545Z,933.83
2017-11-07T05:05:58.663Z,933.8
2017-11-07T05:06:26.717Z,933.83
2017-11-07T05:06:54.872Z,933.78
2017-11-07T05:07:23.028Z,933.8
2017-11-07T05:07:50.871Z,933.78
2017-11-07T05:08:18.798Z,933.77
2017-11-07T05:08:46.816Z,933.78
2017-11-07T05:09:14.851Z,933.75
2017-11-07T05:09:42.903Z,933.78
2017-11-07T05:10:11.239Z,933.76
2017-11-07T05:10:39.263Z,933.76
2017-11-07T05:11:07.198Z,933.73
2017-11-07T05:11:35.328Z,933.71
2017-11-07T05:12:03.349Z,933.75
2017-11-07T05:12:31.398Z,933.74
2017-11-07T05:12:59.205Z,933.73
2017-11-07T05:13:27.231Z,933.76
2017-11-07T05:13:55.161Z,933.71
2017-11-07T05:14:23.179Z,933.73
2017-11-07T05:14:51.397Z,933.72
2017-11-07T05:15:19.377Z,933.71
2017-11-07T05:15:47.191Z,933.72
2017-11-07T05:16:15.146Z,933.69
2017-11-07T05:16:43.097Z,933.71
2017-11-07T05:17:11.044Z,933.69
2017-11-07T05:17:39.121Z,933.67
2017-11-07T05:18:07.163Z,933.64
2017-11-07T05:18:35.279Z,933.65
2017-11-07T05:19:03.425Z,933.67
2017-11-07T05:19:31.477Z,933.64
2017-11-07T05:19:59.613Z,933.59
2017-11-07T05:20:27.784Z,933.65
2017-11-07T05:20:55.711Z,933.65
2017-11-07T05:21:23.680Z,933.66
2017-11-07T05:21:51.650Z,933.68
2017-11-07T05:22:19.820Z,933.63
2017-11-07T05:22:47.920Z,933.67
2017-11-07T05:23:16.029Z,933.63
2017-11-07T05:23:44.071Z,933.64
2017-11-07T05:24:12.250Z,933.61
2017-11-07T05:24:40.351Z,933.67
2017-11-07T05:25:08.376Z,933.65
2017-11-07T05:25:36.472Z,933.68
2017-11-07T05:26:04.519Z,933.69
2017-11-07T05:26:32.565Z,933.7
2017-11-07T05:27:00.562Z,933.69
2017-11-07T05:27:28.494Z,933.69
2017-11-07T05:27:56.426Z,933.69
2017-11-07T05:28:25.238Z,933.71
2017-11-07T05:28:53.281Z,933.7
2017-11-07T05:29:21.312Z,933.66
2017-11-07T05:29:49.425Z,933.7
2017-11-07T05:30:17.698Z,933.7
2017-11-07T05:30:45.534Z,933.7
2017-11-07T05:31:13.519Z,933.71
2017-11-07T05:31:41.548Z,933.7
2017-11-07T05:32:09.473Z,933.68
2017-11-07T05:32:37.530Z,933.69
2017-11-07T05:33:05.423Z,933.68
2017-11-07T05:33:33.582Z,933.64
2017-11-07T05:34:01.433Z,933.63
2017-11-07T05:34:29.575Z,933.64
2017-11-07T05:34:57.692Z,933.63
2017-11-07T05:35:25.725Z,933.6
2017-11-07T05:35:53.574Z,933.59
2017-11-07T05:36:21.601Z,933.61
2017-11-07T05:36:49.738Z,933.59
2017-11-07T05:37:17.673Z,933.57
2017-11-07T05:37:45.811Z,933.59
2017-11-07T05:38:13.746Z,933.59
2017-11-07T05:38:41.672Z,933.58
2017-11-07T05:39:09.717Z,933.56
2017-11-07T05:39:37.739Z,933.55
2017-11-07T05:40:05.853Z,933.55
2017-11-07T05:40:33.870Z,933.5
2017-11-07T05:41:01.907Z,933.55
2017-11-07T05:41:29.818Z,933.53
2017-11-07T05:41:58.608Z,933.51
2017-11-07T05:42:26.641Z,933.54
2017-11-07T05:42:54.770Z,933.51
2017-11-07T05:43:22.793Z,933.49
2017-11-07T05:43:50.796Z,933.54
2017-11-07T05:44:18.972Z,933.52
2017-11-07T05:44:46.973Z,933.51
2017-11-07T05:45:14.730Z,933.53
2017-11-07T05:45:42.758Z,933.51
2017-11-07T05:46:10.759Z,933.54
2017-11-07T05:46:38.695Z,933.53
2017-11-07T05:47:06.782Z,933.52
2017-11-07T05:47:34.802Z,933.51
2017-11-07T05:48:02.854Z,933.51
2017-11-07T05:48:30.785Z,933.48
2017-11-07T05:48:58.824Z,933.49
2017-11-07T05:49:26.842Z,933.5
2017-11-07T05:49:54.864Z,933.49
2017-11-07T05:50:22.987Z,933.46
2017-11-07T05:50:51.064Z,933.49
2017-11-07T05:51:19.118Z,933.47
2017-11-07T05:51:47.273Z,933.47
2017-11-07T05:52:15.402Z,933.49